Time;durP1;ratioP1;P1;durP2;ratioP2;P2;SDS_P1;SDS_P2;PMS_P1;PMS_P2;Temp;Humidity;BMP_temperature;BMP_pressure;BME280_temperature;BME280_humidity;BME280_pressure;Samples;Min_cycle;Max_cycle;Signal;HPM_P1;HPM_P2
2023/03/29 00:01:24;;;;;;;4.93;2.63;;;;;;;5.64;63.59;101831.41;6202343;28;20229;-70
2023/03/29 00:04:45;;;;;;;1.70;1.60;;;;;;;5.54;63.61;101817.31;6170093;28;20614;-69
2023/03/29 00:08:07;;;;;;;1.67;1.40;;;;;;;5.44;65.12;101830.22;6178393;28;20261;-70
2023/03/29 00:11:27;;;;;;;1.93;1.70;;;;;;;5.35;65.50;101838.75;6197376;28;20241;-70
2023/03/29 00:14:50;;;;;;;2.13;1.80;;;;;;;5.32;66.09;101831.94;6200625;28;20237;-71
2023/03/29 00:18:11;;;;;;;2.57;1.87;;;;;;;5.43;66.24;101820.69;6186504;28;20585;-70
2023/03/29 00:21:32;;;;;;;3.33;1.93;;;;;;;5.39;66.33;101820.09;6199099;28;20224;-70
2023/03/29 00:24:53;;;;;;;1.70;1.60;;;;;;;5.39;66.00;101804.41;6194390;28;20229;-70
2023/03/29 00:28:14;;;;;;;6.00;2.07;;;;;;;5.36;66.64;101796.75;6181073;28;20230;-69
2023/03/29 00:31:36;;;;;;;3.03;2.77;;;;;;;5.45;66.08;101797.84;6193319;28;20272;-69
2023/03/29 00:35:00;;;;;;;2.97;1.67;;;;;;;5.59;65.71;101781.16;6189302;28;20237;-70
2023/03/29 00:38:21;;;;;;;4.63;2.03;;;;;;;5.56;66.36;101763.03;6191942;28;20249;-71
2023/03/29 00:41:44;;;;;;;2.73;2.47;;;;;;;5.67;65.80;101763.06;6191249;28;20815;-70
2023/03/29 00:45:16;;;;;;;2.70;2.37;;;;;;;5.82;66.19;101751.47;6196386;28;20229;-70
2023/03/29 00:48:38;;;;;;;2.90;2.33;;;;;;;5.88;65.04;101750.13;6189446;28;20255;-71
2023/03/29 00:51:59;;;;;;;2.33;2.13;;;;;;;5.90;65.38;101738.63;6188218;28;20228;-70
2023/03/29 00:55:22;;;;;;;3.17;2.00;;;;;;;6.02;65.06;101729.84;6195193;28;20233;-70
2023/03/29 00:58:50;;;;;;;1.97;1.73;;;;;;;6.11;65.21;101726.50;6168058;28;20238;-70
2023/03/29 01:02:12;;;;;;;2.57;2.37;;;;;;;6.10;65.43;101724.03;6185808;28;21956;-70
2023/03/29 01:05:39;;;;;;;1.67;1.57;;;;;;;6.04;64.84;101719.25;6195873;28;20225;-70
2023/03/29 01:09:02;;;;;;;3.37;2.07;;;;;;;5.99;65.27;101714.34;6169787;28;20610;-70
2023/03/29 01:12:31;;;;;;;3.83;2.33;;;;;;;6.04;64.93;101708.78;6181878;28;20276;-70
2023/03/29 01:15:54;;;;;;;3.10;1.60;;;;;;;5.87;65.62;101706.59;6199856;28;21123;-69
2023/03/29 01:19:20;;;;;;;1.90;1.67;;;;;;;5.82;65.86;101699.06;6182802;28;20559;-68
2023/03/29 01:22:59;;;;;;;5.57;2.40;;;;;;;5.95;65.49;101697.19;6174742;28;20233;-69
2023/03/29 01:26:26;;;;;;;2.87;2.67;;;;;;;5.88;65.83;101689.88;6190118;28;20281;-70
2023/03/29 01:29:52;;;;;;;4.53;2.13;;;;;;;5.74;64.99;101683.91;6197386;28;21714;-70
2023/03/29 01:33:20;;;;;;;2.20;1.50;;;;;;;5.68;65.14;101678.31;6175844;28;20240;-70
2023/03/29 01:36:48;;;;;;;5.23;3.07;;;;;;;5.75;65.01;101671.66;6190209;28;20230;-70
2023/03/29 01:40:10;;;;;;;7.67;2.30;;;;;;;5.72;65.14;101661.41;6199253;28;20634;-70
2023/03/29 01:43:36;;;;;;;2.80;2.40;;;;;;;5.90;64.83;101653.94;6192032;28;20650;-70
2023/03/29 01:47:07;;;;;;;2.87;2.60;;;;;;;5.74;64.99;101647.25;6194593;28;20263;-71
2023/03/29 01:50:38;;;;;;;4.03;2.23;;;;;;;5.39;65.67;101651.72;6204628;28;20275;-69
2023/03/29 01:54:03;;;;;;;3.30;2.03;;;;;;;5.19;65.48;101645.34;6180966;28;20240;-70
2023/03/29 01:57:26;;;;;;;2.37;2.27;;;;;;;5.46;64.62;101639.81;6194457;28;20233;-70
2023/03/29 02:00:49;;;;;;;2.17;1.83;;;;;;;5.18;64.55;101641.06;6200815;28;20228;-70
2023/03/29 02:04:14;;;;;;;6.13;2.23;;;;;;;5.28;64.18;101635.97;6174617;28;20245;-70
2023/03/29 02:07:39;;;;;;;4.07;1.80;;;;;;;5.36;64.28;101623.16;6178912;28;21826;-70
2023/03/29 02:11:00;;;;;;;2.90;1.90;;;;;;;5.39;64.28;101617.69;6204085;28;20533;-69
2023/03/29 02:14:21;;;;;;;2.37;1.43;;;;;;;5.29;64.42;101611.47;6175202;28;20577;-70
2023/03/29 02:17:43;;;;;;;4.27;3.10;;;;;;;5.33;64.83;101612.91;6172323;28;22139;-70
2023/03/29 02:21:07;;;;;;;3.33;1.90;;;;;;;5.41;64.64;101614.00;6200260;28;20229;-70
2023/03/29 02:24:31;;;;;;;2.40;2.20;;;;;;;5.46;63.84;101611.84;6170128;28;20233;-69
2023/03/29 02:27:52;;;;;;;4.60;2.53;;;;;;;5.45;64.10;101612.78;6160912;28;20233;-70
2023/03/29 02:31:18;;;;;;;4.13;1.93;;;;;;;5.49;63.70;101610.78;6185307;28;20229;-70
2023/03/29 02:34:46;;;;;;;2.73;2.20;;;;;;;5.44;63.73;101602.44;6191156;28;20253;-70
2023/03/29 02:38:10;;;;;;;2.67;2.47;;;;;;;5.36;63.56;101594.34;6185502;28;20554;-70
2023/03/29 02:41:32;;;;;;;2.30;2.10;;;;;;;5.19;63.39;101593.00;6186191;28;20233;-70
2023/03/29 02:44:57;;;;;;;4.07;2.67;;;;;;;5.04;64.84;101588.91;6202689;28;20630;-70
2023/03/29 02:48:21;;;;;;;1.77;1.67;;;;;;;5.19;63.50;101579.09;6174640;28;20253;-69
2023/03/29 02:51:44;;;;;;;2.37;2.17;;;;;;;5.05;64.03;101575.72;6185021;28;20285;-69
2023/03/29 02:55:13;;;;;;;2.73;2.20;;;;;;;4.79;65.24;101579.44;6187470;28;20237;-69
2023/03/29 02:58:35;;;;;;;1.60;1.50;;;;;;;4.90;64.37;101568.19;6194729;28;20240;-70
2023/03/29 03:01:57;;;;;;;4.50;2.63;;;;;;;5.04;64.26;101562.75;6178506;28;20267;-70
2023/03/29 03:05:19;;;;;;;2.33;2.13;;;;;;;4.96;63.94;101562.50;6200152;28;20225;-70
2023/03/29 03:08:40;;;;;;;7.20;3.03;;;;;;;4.81;64.48;101564.47;6192496;28;20229;-70
2023/03/29 03:12:03;;;;;;;8.07;4.00;;;;;;;4.80;64.54;101560.16;6172587;28;20637;-71
2023/03/29 03:15:25;;;;;;;2.80;1.80;;;;;;;4.79;64.50;101558.50;6185942;28;20237;-70
2023/03/29 03:18:47;;;;;;;2.17;2.00;;;;;;;4.74;64.65;101547.56;6186251;28;20512;-70
2023/03/29 03:22:08;;;;;;;2.30;2.17;;;;;;;4.62;64.80;101548.47;6186864;28;20233;-70
2023/03/29 03:25:31;;;;;;;2.40;1.90;;;;;;;4.70;65.10;101540.91;6186826;28;20232;-70
2023/03/29 03:28:53;;;;;;;1.60;1.50;;;;;;;4.75;64.78;101542.19;6191234;28;20251;-69
2023/03/29 03:32:35;;;;;;;2.03;1.80;;;;;;;4.75;64.57;101538.75;6186832;28;20229;-69
2023/03/29 03:36:25;;;;;;;2.63;2.43;;;;;;;4.86;64.36;101535.34;6203102;28;20213;-70
2023/03/29 03:39:46;;;;;;;5.37;3.30;;;;;;;4.69;64.56;101536.63;6172873;28;20221;-70
2023/03/29 03:43:09;;;;;;;3.33;2.50;;;;;;;4.75;64.66;101528.28;6190558;28;20237;-69
2023/03/29 03:46:32;;;;;;;1.80;1.70;;;;;;;4.84;64.64;101532.00;6187175;28;20233;-69
2023/03/29 03:49:54;;;;;;;3.03;2.50;;;;;;;4.89;63.88;101525.50;6198343;28;20225;-69
2023/03/29 03:53:18;;;;;;;8.80;3.00;;;;;;;4.74;64.24;101529.28;6174466;28;20241;-69
2023/03/29 03:56:58;;;;;;;4.03;3.20;;;;;;;4.82;64.00;101519.06;6195029;28;20229;-70
2023/03/29 04:00:26;;;;;;;3.47;2.70;;;;;;;4.80;64.63;101510.47;6184348;28;20702;-69
2023/03/29 04:04:04;;;;;;;3.53;1.60;;;;;;;4.79;64.54;101511.44;6183199;28;20232;-69
2023/03/29 04:07:26;;;;;;;4.20;2.30;;;;;;;4.85;64.06;101515.38;6164487;28;20542;-69
2023/03/29 04:11:10;;;;;;;2.20;1.83;;;;;;;4.73;65.60;101514.53;6175463;28;20245;-70
2023/03/29 04:14:34;;;;;;;2.57;2.37;;;;;;;4.92;64.67;101520.03;6185226;28;20237;-71
2023/03/29 04:18:00;;;;;;;9.50;5.37;;;;;;;5.00;64.40;101515.03;6186011;28;20228;-70
2023/03/29 04:21:29;;;;;;;3.27;2.77;;;;;;;5.03;64.53;101512.19;6204991;28;20323;-69
2023/03/29 04:24:50;;;;;;;4.03;2.10;;;;;;;4.93;64.43;101507.81;6182919;28;20320;-70
2023/03/29 04:28:27;;;;;;;2.60;2.40;;;;;;;4.72;65.48;101508.47;6198927;28;20240;-70
2023/03/29 04:32:14;;;;;;;2.50;2.30;;;;;;;4.81;65.36;101513.00;6197335;28;20771;-70
2023/03/29 04:35:57;;;;;;;3.63;2.70;;;;;;;4.77;65.32;101514.16;6197480;28;20233;-70
2023/03/29 04:39:20;;;;;;;2.90;2.47;;;;;;;4.90;65.37;101503.63;6184378;28;20225;-70
2023/03/29 04:42:47;;;;;;;2.67;2.47;;;;;;;5.00;64.72;101499.34;6210871;28;20227;-70
2023/03/29 04:46:08;;;;;;;5.73;3.43;;;;;;;4.89;65.27;101499.34;6199105;28;20618;-69
2023/03/29 04:49:52;;;;;;;3.63;3.23;;;;;;;4.80;65.56;101490.41;6181909;28;20244;-69
2023/03/29 04:53:29;;;;;;;11.63;3.83;;;;;;;4.85;65.24;101491.84;6200571;28;20578;-70
2023/03/29 04:56:51;;;;;;;3.07;2.53;;;;;;;4.84;65.41;101496.22;6181611;28;20225;-69
2023/03/29 05:00:25;;;;;;;4.50;2.77;;;;;;;4.79;65.48;101490.50;6187381;28;20229;-69
2023/03/29 05:04:05;;;;;;;3.67;3.37;;;;;;;4.96;65.61;101484.03;6192686;28;20233;-70
2023/03/29 05:07:32;;;;;;;9.50;3.77;;;;;;;5.07;65.64;101477.00;6180949;28;20229;-69
2023/03/29 05:10:53;;;;;;;3.27;2.93;;;;;;;4.95;65.93;101477.13;6187893;28;20236;-69
2023/03/29 05:14:16;;;;;;;5.67;2.90;;;;;;;4.97;65.78;101483.06;6188271;28;20237;-69
2023/03/29 05:17:38;;;;;;;4.07;3.20;;;;;;;5.06;65.72;101477.13;6196614;28;20229;-70
2023/03/29 05:21:03;;;;;;;4.30;3.97;;;;;;;5.10;65.66;101475.94;6185695;28;20237;-70
2023/03/29 05:24:26;;;;;;;3.63;2.87;;;;;;;5.11;65.78;101475.84;6186480;28;20288;-70
2023/03/29 05:27:51;;;;;;;4.83;3.63;;;;;;;4.99;66.18;101478.53;6193144;28;20510;-70
2023/03/29 05:31:15;;;;;;;4.63;4.23;;;;;;;4.98;66.54;101471.63;6190900;28;20719;-70
2023/03/29 05:34:36;;;;;;;4.07;3.23;;;;;;;4.92;66.79;101470.34;6188685;28;20229;-70
2023/03/29 05:37:57;;;;;;;5.83;4.20;;;;;;;4.99;66.85;101466.28;6201432;28;20237;-69
2023/03/29 05:41:18;;;;;;;12.43;4.87;;;;;;;5.09;66.62;101475.13;6195696;28;20233;-70
2023/03/29 05:44:57;;;;;;;5.37;3.93;;;;;;;5.09;66.31;101464.66;6198504;28;20245;-68
2023/03/29 05:48:21;;;;;;;4.43;3.53;;;;;;;5.09;66.78;101454.19;6190158;28;20671;-69
2023/03/29 05:51:44;;;;;;;4.33;3.67;;;;;;;5.02;67.33;101452.97;6202482;28;20238;-67
2023/03/29 05:55:06;;;;;;;4.83;4.53;;;;;;;4.99;67.89;101447.13;6190838;28;20630;-69
2023/03/29 05:58:29;;;;;;;6.73;4.90;;;;;;;5.02;67.71;101450.38;6196861;28;20233;-69
2023/03/29 06:01:50;;;;;;;4.23;3.17;;;;;;;5.01;68.42;101451.31;6202168;28;20619;-71
2023/03/29 06:05:16;;;;;;;6.07;3.90;;;;;;;5.13;67.98;101445.16;6189599;28;20228;-70
2023/03/29 06:08:49;;;;;;;4.53;3.20;;;;;;;4.95;68.58;101464.06;6194617;28;20226;-70
2023/03/29 06:12:18;;;;;;;8.47;4.67;;;;;;;4.92;68.78;101449.41;6179669;28;20237;-69
2023/03/29 06:15:48;;;;;;;3.50;3.20;;;;;;;4.95;69.02;101451.81;6192729;28;20726;-70
2023/03/29 06:19:09;;;;;;;4.63;3.90;;;;;;;5.00;68.74;101452.25;6201918;28;20236;-70
2023/03/29 06:22:33;;;;;;;6.63;4.43;;;;;;;5.16;68.45;101462.41;6183656;28;20241;-70
2023/03/29 06:25:54;;;;;;;5.00;4.17;;;;;;;5.17;68.59;101444.91;6176021;28;20233;-68
2023/03/29 06:29:15;;;;;;;5.83;3.90;;;;;;;5.30;67.86;101450.84;6197151;28;20658;-69
2023/03/29 06:32:37;;;;;;;4.60;4.13;;;;;;;5.31;68.18;101450.72;6198908;28;20241;-69
2023/03/29 06:36:03;;;;;;;5.73;4.63;;;;;;;5.26;68.23;101457.28;6196095;28;20249;-69
2023/03/29 06:39:26;;;;;;;5.17;4.67;;;;;;;5.27;68.63;101464.16;6208816;28;20276;-71
2023/03/29 06:43:15;;;;;;;4.27;3.60;;;;;;;5.41;67.79;101470.03;6165523;28;20229;-72
2023/03/29 06:46:41;;;;;;;7.97;4.50;;;;;;;5.43;68.43;101477.72;6194243;28;20754;-72
2023/03/29 06:50:03;;;;;;;5.73;3.80;;;;;;;5.45;68.07;101463.56;6189366;28;20225;-70
2023/03/29 06:53:30;;;;;;;5.93;3.60;;;;;;;5.32;69.31;101451.56;6211582;28;20614;-68
2023/03/29 06:56:56;;;;;;;5.17;3.13;;;;;;;5.38;69.21;101454.53;6207231;28;20510;-72
2023/03/29 07:00:26;;;;;;;6.43;4.17;;;;;;;5.48;69.11;101452.84;6208041;28;20233;-71
2023/03/29 07:04:03;;;;;;;4.00;3.60;;;;;;;5.64;68.87;101456.91;6187923;28;20229;-70
2023/03/29 07:07:42;;;;;;;6.07;3.03;;;;;;;5.74;68.59;101453.41;6188229;28;20233;-70
2023/03/29 07:11:17;;;;;;;6.33;3.80;;;;;;;5.77;68.56;101442.69;6202273;28;20261;-71
2023/03/29 07:14:49;;;;;;;3.17;2.63;;;;;;;5.93;68.08;101447.56;6193970;28;20249;-71
2023/03/29 07:18:11;;;;;;;5.63;3.20;;;;;;;6.05;67.99;101451.00;6172770;28;20294;-71
2023/03/29 07:21:32;;;;;;;3.37;2.40;;;;;;;6.10;67.87;101439.16;6184186;28;20233;-70
2023/03/29 07:24:53;;;;;;;5.03;3.13;;;;;;;6.13;68.36;101453.81;6197197;28;20233;-71
2023/03/29 07:28:14;;;;;;;4.70;3.80;;;;;;;6.10;67.69;101446.22;6187327;28;20616;-70
2023/03/29 07:31:39;;;;;;;3.53;2.90;;;;;;;6.33;67.47;101447.75;6189400;28;20237;-71
2023/03/29 07:35:22;;;;;;;5.23;3.17;;;;;;;6.15;67.71;101451.91;6160319;28;20229;-71
2023/03/29 07:38:42;;;;;;;4.13;3.57;;;;;;;6.24;67.27;101452.94;6181293;28;20225;-71
2023/03/29 07:42:08;;;;;;;3.57;3.27;;;;;;;6.41;67.48;101444.53;6180703;28;20319;-70
2023/03/29 07:45:29;;;;;;;2.80;2.53;;;;;;;6.25;68.18;101442.34;6191846;28;20233;-70
2023/03/29 07:49:07;;;;;;;3.87;3.50;;;;;;;6.30;67.79;101437.56;6179017;28;20968;-70
2023/03/29 07:52:28;;;;;;;2.93;2.63;;;;;;;6.28;68.14;101434.22;6186148;28;20245;-68
2023/03/29 07:55:53;;;;;;;4.17;2.97;;;;;;;6.24;68.72;101443.28;6187257;28;20229;-69
2023/03/29 07:59:39;;;;;;;5.07;3.37;;;;;;;6.42;68.17;101440.94;6172201;28;20233;-69
2023/03/29 08:03:04;;;;;;;4.10;3.53;;;;;;;6.47;67.77;101439.59;6175575;28;20316;-70
2023/03/29 08:06:27;;;;;;;5.40;3.47;;;;;;;6.37;67.81;101438.69;6198445;28;20233;-70
2023/03/29 08:09:48;;;;;;;3.97;3.33;;;;;;;6.63;67.41;101433.91;6206464;28;20237;-71
2023/03/29 08:13:10;;;;;;;2.97;2.73;;;;;;;6.77;66.89;101430.97;6182749;28;20265;-71
2023/03/29 08:16:39;;;;;;;4.13;3.50;;;;;;;6.85;66.69;101438.19;6186260;28;20225;-73
2023/03/29 08:20:09;;;;;;;3.30;2.90;;;;;;;6.97;66.20;101428.44;6187712;28;21718;-70
2023/03/29 08:23:33;;;;;;;5.17;2.73;;;;;;;7.24;65.94;101427.84;6185541;28;20253;-70
2023/03/29 08:27:16;;;;;;;7.33;2.93;;;;;;;7.41;65.17;101432.50;6173241;28;20294;-71
2023/03/29 08:30:36;;;;;;;6.13;3.70;;;;;;;7.51;63.98;101415.78;6193797;28;20237;-71
2023/03/29 08:33:58;;;;;;;2.90;2.60;;;;;;;7.70;64.37;101414.16;6164423;28;20324;-69
2023/03/29 08:37:45;;;;;;;11.53;3.57;;;;;;;7.87;63.63;101413.50;6180724;28;20237;-69
2023/03/29 08:41:26;;;;;;;3.80;3.40;;;;;;;7.77;63.17;101410.88;6192765;28;20240;-70
2023/03/29 08:45:01;;;;;;;4.43;3.13;;;;;;;7.56;64.29;101407.50;6179994;28;20224;-71
2023/03/29 08:48:27;;;;;;;3.23;2.00;;;;;;;7.42;64.54;101413.97;6158610;28;20229;-72
2023/03/29 08:51:52;;;;;;;5.30;3.20;;;;;;;7.40;65.41;101408.03;6135417;28;20237;-70
2023/03/29 08:55:20;;;;;;;3.87;3.13;;;;;;;7.35;65.47;101414.63;6159840;28;21582;-70
2023/03/29 08:59:19;;;;;;;3.00;2.77;;;;;;;7.31;65.04;101413.25;6166144;28;20233;-70
2023/03/29 09:02:45;;;;;;;3.40;3.10;;;;;;;7.38;65.61;101409.13;6168207;28;20229;-70
2023/03/29 09:06:08;;;;;;;5.83;3.53;;;;;;;7.51;65.06;101404.44;6188494;28;20240;-72
2023/03/29 09:09:34;;;;;;;3.37;3.00;;;;;;;7.35;65.20;101412.00;6189859;28;20229;-71
2023/03/29 09:13:19;;;;;;;3.83;2.97;;;;;;;7.54;64.75;101399.75;6187845;28;20248;-70
2023/03/29 09:16:51;;;;;;;7.30;3.07;;;;;;;7.50;64.83;101403.63;6189860;28;20260;-70
2023/03/29 09:20:22;;;;;;;2.80;2.50;;;;;;;7.64;63.87;101394.53;6187466;28;20213;-71
2023/03/29 09:24:04;;;;;;;3.20;2.47;;;;;;;7.83;63.23;101404.22;6186126;28;20355;-71
2023/03/29 09:27:40;;;;;;;6.03;2.83;;;;;;;7.65;63.54;101395.38;6161817;28;20247;-71
2023/03/29 09:31:15;;;;;;;2.83;2.63;;;;;;;7.62;63.76;101387.75;6180691;28;20261;-69
2023/03/29 09:34:43;;;;;;;2.93;2.67;;;;;;;7.67;63.92;101389.00;6190654;28;20762;-71
2023/03/29 09:38:12;;;;;;;3.33;2.93;;;;;;;8.04;63.10;101380.44;6188226;28;20355;-72
2023/03/29 09:41:40;;;;;;;3.50;2.63;;;;;;;8.26;62.43;101388.03;6189901;28;20233;-71
2023/03/29 09:45:07;;;;;;;4.97;3.07;;;;;;;8.57;61.29;101394.81;6193688;28;20233;-71
2023/03/29 09:48:39;;;;;;;5.67;3.17;;;;;;;8.40;61.59;101384.16;6182872;28;20360;-72
2023/03/29 09:52:08;;;;;;;2.60;2.40;;;;;;;8.60;60.60;101377.88;6185114;28;20237;-71
2023/03/29 09:55:32;;;;;;;3.03;2.63;;;;;;;8.35;61.29;101368.00;6203688;28;20240;-70
2023/03/29 09:59:03;;;;;;;4.17;2.33;;;;;;;8.41;61.70;101360.34;6186707;28;20348;-71
2023/03/29 10:02:25;;;;;;;5.20;3.43;;;;;;;8.29;61.62;101363.25;6184379;28;20224;-71
2023/03/29 10:05:48;;;;;;;2.47;2.27;;;;;;;8.35;62.17;101353.06;6213894;28;20344;-71
2023/03/29 10:09:19;;;;;;;3.13;2.93;;;;;;;8.41;62.23;101354.25;6186730;28;20229;-71
2023/03/29 10:12:49;;;;;;;4.07;2.53;;;;;;;8.45;61.62;101345.13;6202425;28;20232;-71
2023/03/29 10:16:20;;;;;;;3.60;2.97;;;;;;;8.87;60.35;101363.97;6214220;28;20237;-71
2023/03/29 10:19:48;;;;;;;4.37;2.73;;;;;;;8.61;60.85;101365.56;6203467;28;20233;-72
2023/03/29 10:23:18;;;;;;;3.17;2.50;;;;;;;8.54;61.65;101347.75;6202257;28;20225;-71
2023/03/29 10:26:41;;;;;;;2.93;2.23;;;;;;;9.01;61.02;101360.88;6207319;28;20225;-71
2023/03/29 10:30:10;;;;;;;2.57;2.37;;;;;;;8.68;61.94;101351.69;6213186;28;21069;-70
2023/03/29 10:33:33;;;;;;;2.67;2.47;;;;;;;8.57;62.48;101352.72;6203998;28;20241;-71
2023/03/29 10:36:59;;;;;;;2.63;2.43;;;;;;;8.59;62.89;101352.56;6201395;28;20233;-71
2023/03/29 10:40:25;;;;;;;4.97;3.43;;;;;;;8.79;62.76;101340.19;6214652;28;20320;-72
2023/03/29 10:43:50;;;;;;;4.83;3.67;;;;;;;9.20;63.39;101341.50;6174821;28;20221;-77
2023/03/29 10:47:18;;;;;;;3.70;3.37;;;;;;;9.28;61.25;101338.94;6196979;28;20711;-80
2023/03/29 10:50:39;;;;;;;4.20;3.13;;;;;;;9.20;62.20;101341.50;6192795;28;20232;-77
2023/03/29 10:54:01;;;;;;;2.37;2.17;;;;;;;9.33;61.73;101341.13;6183607;28;20331;-71
2023/03/29 10:57:33;;;;;;;3.40;3.10;;;;;;;8.67;64.46;101355.31;6187084;28;20225;-73
2023/03/29 11:00:57;;;;;;;2.90;2.67;;;;;;;8.60;65.08;101354.22;6196907;28;20237;-73
2023/03/29 11:04:29;;;;;;;4.00;3.60;;;;;;;8.58;65.29;101346.47;6185929;28;20225;-76
2023/03/29 11:08:03;;;;;;;3.47;3.13;;;;;;;8.95;64.49;101340.38;6183565;28;20670;-70
2023/03/29 11:11:47;;;;;;;3.17;2.77;;;;;;;9.13;63.84;101332.53;6193151;28;20619;-72
2023/03/29 11:15:21;;;;;;;14.77;3.33;;;;;;;8.90;65.18;101327.66;6199793;28;20320;-71
2023/03/29 11:19:07;;;;;;;3.53;2.53;;;;;;;8.97;65.45;101311.28;6185666;28;20532;-71
2023/03/29 11:22:38;;;;;;;3.80;2.50;;;;;;;9.13;64.74;101322.81;6188664;28;20272;-72
2023/03/29 11:26:09;;;;;;;4.57;3.03;;;;;;;9.08;65.03;101319.78;6200304;28;20225;-70
2023/03/29 11:29:35;;;;;;;10.47;4.27;;;;;;;9.09;65.24;101320.63;6188717;28;20241;-73
2023/03/29 11:33:05;;;;;;;8.07;3.57;;;;;;;9.00;65.81;101332.06;6182528;28;20261;-71
2023/03/29 11:36:37;;;;;;;6.83;3.40;;;;;;;8.87;67.24;101330.56;6205158;28;20628;-71
2023/03/29 11:40:10;;;;;;;4.63;3.23;;;;;;;8.93;67.09;101329.16;6193917;28;20413;-71
2023/03/29 11:43:37;;;;;;;6.73;2.67;;;;;;;8.76;68.05;101322.88;6190429;28;20525;-71
2023/03/29 11:47:02;;;;;;;7.10;4.57;;;;;;;8.80;67.07;101333.94;6183039;28;20529;-72
2023/03/29 11:50:27;;;;;;;5.40;3.37;;;;;;;8.73;68.36;101336.31;6202435;28;20233;-72
2023/03/29 11:53:58;;;;;;;3.87;2.87;;;;;;;8.71;68.77;101337.44;6195394;28;20279;-71
2023/03/29 11:57:26;;;;;;;4.87;4.43;;;;;;;8.79;68.77;101329.66;6198043;28;20236;-70
2023/03/29 12:00:51;;;;;;;4.87;2.97;;;;;;;8.94;67.96;101328.19;6206042;28;20341;-69
2023/03/29 12:04:21;;;;;;;6.13;3.27;;;;;;;8.87;67.55;101327.09;6191716;28;20229;-70
2023/03/29 12:07:47;;;;;;;4.93;3.80;;;;;;;8.96;67.48;101328.03;6182394;28;20326;-71
2023/03/29 12:11:18;;;;;;;2.93;2.63;;;;;;;8.87;68.01;101321.84;6190648;28;20274;-69
2023/03/29 12:14:49;;;;;;;4.17;3.27;;;;;;;8.94;67.16;101325.56;6192738;28;20233;-70
2023/03/29 12:18:18;;;;;;;5.40;4.93;;;;;;;8.96;67.52;101328.88;6193448;28;20237;-69
2023/03/29 12:21:41;;;;;;;4.13;3.77;;;;;;;8.96;67.17;101320.97;6200283;28;20240;-72
2023/03/29 12:25:05;;;;;;;7.63;4.40;;;;;;;9.02;67.45;101314.31;6190982;28;20327;-71
2023/03/29 12:28:48;;;;;;;3.63;2.77;;;;;;;9.23;66.61;101312.25;6197826;28;20271;-69
2023/03/29 12:32:27;;;;;;;3.73;3.43;;;;;;;9.37;66.04;101311.72;6190469;28;20233;-70
2023/03/29 12:36:25;;;;;;;9.80;6.03;;;;;;;9.29;66.54;101316.06;6174558;28;20256;-70
2023/03/29 12:40:12;;;;;;;4.17;3.77;;;;;;;9.46;66.10;101313.47;6183529;28;20490;-71
2023/03/29 12:44:02;;;;;;;4.20;3.77;;;;;;;9.41;66.10;101309.63;6180517;28;20265;-70
2023/03/29 12:47:47;;;;;;;4.53;4.13;;;;;;;9.40;66.51;101321.13;6178997;28;20260;-70
2023/03/29 12:51:13;;;;;;;4.23;3.80;;;;;;;9.62;65.92;101311.97;6192393;28;20305;-71
2023/03/29 12:54:34;;;;;;;3.47;3.23;;;;;;;9.61;66.17;101305.84;6184291;28;20295;-70
2023/03/29 12:58:03;;;;;;;9.03;3.93;;;;;;;9.70;65.89;101293.59;6180661;28;20547;-69
2023/03/29 13:01:29;;;;;;;6.10;4.57;;;;;;;9.66;65.97;101297.50;6191345;28;20236;-70
2023/03/29 13:04:51;;;;;;;5.03;4.27;;;;;;;9.63;66.60;101289.91;6193755;28;20773;-71
2023/03/29 13:08:25;;;;;;;3.87;3.57;;;;;;;9.78;66.06;101293.66;6185997;28;20307;-69
2023/03/29 13:11:52;;;;;;;4.03;3.60;;;;;;;9.86;66.15;101296.34;6179860;28;20920;-71
2023/03/29 13:15:23;;;;;;;4.53;3.83;;;;;;;9.97;65.95;101292.63;6191145;28;20331;-70
2023/03/29 13:19:13;;;;;;;5.37;3.50;;;;;;;10.04;65.74;101289.25;6180705;28;20229;-68
2023/03/29 13:22:44;;;;;;;8.83;4.53;;;;;;;10.08;65.49;101284.50;6172027;28;20264;-71
2023/03/29 13:26:18;;;;;;;4.80;3.93;;;;;;;10.47;64.27;101282.28;6197250;28;20230;-72
2023/03/29 13:29:55;;;;;;;4.23;3.87;;;;;;;9.90;66.36;101277.44;6193127;28;20257;-71
2023/03/29 13:33:31;;;;;;;3.10;2.90;;;;;;;10.05;65.96;101285.63;6183732;28;20245;-70
2023/03/29 13:37:05;;;;;;;4.07;3.53;;;;;;;10.15;65.19;101289.00;6190436;28;20229;-68
2023/03/29 13:40:43;;;;;;;3.93;3.63;;;;;;;10.31;65.08;101269.84;6205735;28;20244;-69
2023/03/29 13:44:05;;;;;;;3.73;3.27;;;;;;;10.25;65.33;101268.63;6188179;28;21054;-68
2023/03/29 13:47:40;;;;;;;6.43;4.43;;;;;;;10.39;65.20;101264.59;6190650;28;20228;-69
2023/03/29 13:51:06;;;;;;;5.07;3.63;;;;;;;10.52;64.51;101272.91;6199004;28;20240;-68
2023/03/29 13:54:34;;;;;;;4.00;3.67;;;;;;;10.78;63.69;101264.13;6192216;28;20234;-69
2023/03/29 13:58:00;;;;;;;3.50;3.20;;;;;;;10.80;63.92;101257.69;6199158;28;20241;-69
2023/03/29 14:01:27;;;;;;;2.83;2.60;;;;;;;10.60;64.54;101262.41;6205512;28;20621;-73
2023/03/29 14:04:50;;;;;;;4.80;4.37;;;;;;;10.95;63.50;101248.16;6200194;28;20232;-69
2023/03/29 14:08:16;;;;;;;8.13;5.00;;;;;;;11.14;63.37;101248.84;6197631;28;20602;-70
2023/03/29 14:11:42;;;;;;;4.70;3.17;;;;;;;11.10;63.48;101236.94;6189827;28;20258;-69
2023/03/29 14:15:07;;;;;;;4.27;3.87;;;;;;;10.81;64.80;101238.22;6196441;28;21908;-71
2023/03/29 14:18:33;;;;;;;3.57;3.23;;;;;;;10.62;65.97;101227.91;6192274;28;20562;-70
2023/03/29 14:21:54;;;;;;;4.97;3.63;;;;;;;10.63;66.04;101222.47;6199734;28;20221;-68
2023/03/29 14:25:18;;;;;;;4.30;3.63;;;;;;;10.73;66.03;101221.50;6201847;28;20249;-72
2023/03/29 14:28:45;;;;;;;4.87;3.83;;;;;;;10.79;66.58;101231.44;6187864;28;20610;-69
2023/03/29 14:32:11;;;;;;;4.20;3.13;;;;;;;10.79;66.37;101221.72;6185931;28;20246;-67
2023/03/29 14:35:32;;;;;;;3.57;3.27;;;;;;;10.69;66.88;101233.38;6185876;28;20237;-69
2023/03/29 14:38:58;;;;;;;5.50;4.53;;;;;;;10.38;68.16;101233.94;6196454;28;20261;-69
2023/03/29 14:42:21;;;;;;;4.70;3.17;;;;;;;10.49;68.61;101232.81;6191620;28;20320;-70
2023/03/29 14:45:45;;;;;;;5.33;3.30;;;;;;;10.36;69.18;101238.53;6195114;28;20233;-70
2023/03/29 14:49:06;;;;;;;3.73;3.43;;;;;;;10.13;70.75;101234.75;6188593;28;20229;-70
2023/03/29 14:52:29;;;;;;;3.97;3.67;;;;;;;10.06;71.73;101234.53;6197259;28;20484;-70
2023/03/29 14:55:51;;;;;;;3.43;3.13;;;;;;;10.05;72.14;101229.41;6197882;28;20229;-70
2023/03/29 14:59:24;;;;;;;5.03;4.37;;;;;;;10.05;72.73;101224.97;6191443;28;20248;-71
2023/03/29 15:02:53;;;;;;;3.57;3.27;;;;;;;10.02;73.42;101225.25;6185953;28;20633;-71
2023/03/29 15:06:14;;;;;;;5.33;3.97;;;;;;;10.00;73.12;101226.41;6198240;28;20240;-71
2023/03/29 15:09:37;;;;;;;5.97;4.57;;;;;;;10.01;73.42;101214.88;6178559;28;20261;-71
2023/03/29 15:12:59;;;;;;;4.53;4.00;;;;;;;10.05;73.19;101214.41;6182126;28;20233;-71
2023/03/29 15:16:21;;;;;;;4.50;4.10;;;;;;;10.04;73.50;101209.28;6184975;28;20241;-71
2023/03/29 15:19:45;;;;;;;5.03;4.53;;;;;;;10.13;73.32;101209.19;6182211;28;20659;-70
2023/03/29 15:23:18;;;;;;;5.87;3.83;;;;;;;10.21;72.41;101217.16;6179114;28;20237;-70
2023/03/29 15:26:40;;;;;;;3.67;3.37;;;;;;;10.24;72.53;101201.03;6200532;28;20236;-70
2023/03/29 15:30:02;;;;;;;5.70;4.80;;;;;;;10.28;72.33;101197.09;6164458;28;21345;-69
2023/03/29 15:33:24;;;;;;;5.23;4.73;;;;;;;10.37;71.89;101197.97;6196488;28;20233;-70
2023/03/29 15:36:46;;;;;;;5.00;4.60;;;;;;;10.38;71.94;101189.06;6195068;28;20253;-70
2023/03/29 15:40:14;;;;;;;6.57;4.23;;;;;;;10.38;71.87;101191.72;6212473;28;20225;-70
2023/03/29 15:43:36;;;;;;;5.63;4.43;;;;;;;10.52;71.61;101182.34;6184045;28;20551;-70
2023/03/29 15:46:58;;;;;;;9.33;4.30;;;;;;;10.45;71.43;101178.69;6199264;28;20226;-71
2023/03/29 15:50:19;;;;;;;5.63;4.50;;;;;;;10.42;71.31;101173.72;6202578;28;20233;-72
2023/03/29 15:53:41;;;;;;;4.27;3.90;;;;;;;10.45;71.60;101170.75;6190821;28;20245;-71
2023/03/29 15:57:05;;;;;;;5.70;4.63;;;;;;;10.49;71.51;101158.91;6181293;28;20232;-71
2023/03/29 16:00:26;;;;;;;4.80;4.27;;;;;;;10.52;71.54;101162.06;6200140;28;20225;-70
2023/03/29 16:03:47;;;;;;;6.00;4.70;;;;;;;10.55;71.29;101148.53;6182619;28;20304;-70
2023/03/29 16:07:13;;;;;;;6.20;4.27;;;;;;;10.63;71.22;101140.63;6194953;28;20599;-69
2023/03/29 16:10:35;;;;;;;7.07;4.17;;;;;;;10.65;70.99;101150.19;6200996;28;20472;-69
2023/03/29 16:13:57;;;;;;;7.97;6.90;;;;;;;10.68;70.90;101144.59;6200241;28;20631;-69